Česky Dansk Deutsch English Español Suomi Français Magyar Italiano Nederlands norsk Polski Português svenska Türkçe

 

Het Weer

Chievres (België)

13:55, 23 augustus 2016 (GMT)

NWNNE
WE
SWSSE
Home            
Chievres Munte Charleroi / Gosselies Lille Melsbroek Bel-Afb Bruxelles National Cambrai Gent / Industrie-Zone Florennes Beauvechain Goetsenhoven Antwerpen / Deurne Saint-Quentin Brasschaat Oostende Airport Schaffen Sint-Truiden Koksijde Charleville Woensdrecht Bierset Bertrix Bel-Afb Genk

Om een weerknop op uw website of weblog te plaatsen, copieer onderstaande code en plak die in uw pagina. In het eerste vakje staat HTML-code, in het tweede vakje UBB-code.


Add to Google

Details

Wind speed:2 bf, 6 kn, 3.1 m/s, 6.9 miles/h, 11.1 km/h
Wind direction:SE, 140°
Visibility:Greater than 10000 m, 10 km, 32800 ft, 6.2 miles
Temperature:29°C, 84°F
Gefühlte Temperatur:29°C, 84°F
Dew-point:16°C, 61°F
Atmospheric pressure:1024 hPa, 768.1 mmHg, 30.24 inHg, 1.011 atm
Relative humidity:45.4 %
METAR:EBCV 231355Z AUTO 14006KT 9999 NCD 29/16 Q1024 BLU

Snelkoppelingen

Actuele weersinformatie van de hele wereld. Voeg locaties toe met het plus (+) symbool. Deze snelkoppelingen kunnen worden toegevoegd aan Google.

Lid van de Technetium groep

website free tracking
StatCounter NetStat W3C Validator

21-11-2017 11:21:55
astro.technetium.be money.technetium.be phote.technetium.be tafeltennistafel.technetium.be www.ligfiets.net